createdAt,value
2023-04-05T00:01:06.294Z,-0.9
2023-04-05T00:03:06.047Z,-1
2023-04-05T00:05:07.894Z,-1
2023-04-05T00:07:09.331Z,-1
2023-04-05T00:09:08.998Z,-1.1
2023-04-05T00:11:05.815Z,-1.2
2023-04-05T00:13:09.009Z,-1.2
2023-04-05T00:15:05.770Z,-1.3
2023-04-05T00:17:10.217Z,-1.3
2023-04-05T00:19:09.787Z,-1.4
2023-04-05T00:21:09.042Z,-1.3
2023-04-05T00:23:06.306Z,-1.1
2023-04-05T00:27:18.682Z,-1.2
2023-04-05T00:29:08.991Z,-1.2
2023-04-05T00:31:09.466Z,-1.2
2023-04-05T00:33:08.407Z,-1.3
2023-04-05T00:35:09.087Z,-1.4
2023-04-05T00:37:06.219Z,-1.5
2023-04-05T00:39:09.034Z,-1.4
2023-04-05T00:41:12.024Z,-1.5
2023-04-05T00:43:06.261Z,-1.6
2023-04-05T00:45:08.393Z,-1.7
2023-04-05T00:47:05.842Z,-1.6
2023-04-05T00:49:09.608Z,-1.5
2023-04-05T00:51:05.770Z,-1.6
2023-04-05T00:53:05.776Z,-1.6
2023-04-05T00:55:06.661Z,-1.6
2023-04-05T00:57:08.651Z,-1.6
2023-04-05T00:59:05.837Z,-1.6
2023-04-05T01:01:09.065Z,-1.6
2023-04-05T01:03:09.062Z,-1.5
2023-04-05T01:05:05.828Z,-1.3
2023-04-05T01:07:08.595Z,-1.4
2023-04-05T01:09:09.184Z,-1.3
2023-04-05T01:11:08.929Z,-1.3
2023-04-05T01:13:06.329Z,-1.4
2023-04-05T01:15:08.873Z,-1.5
2023-04-05T01:17:05.796Z,-1.2
2023-04-05T01:19:06.721Z,-1.4
2023-04-05T01:21:06.229Z,-1.3
2023-04-05T01:23:08.930Z,-1.5
2023-04-05T01:25:08.969Z,-1.6
2023-04-05T01:27:08.661Z,-1.4
2023-04-05T01:29:05.812Z,-1.2
2023-04-05T01:31:06.355Z,-1.3
2023-04-05T01:33:06.571Z,-1.4
2023-04-05T01:35:05.794Z,-1.5
2023-04-05T01:37:09.430Z,-1.6
2023-04-05T01:39:08.801Z,-1.5
2023-04-05T01:41:05.811Z,-1.5
2023-04-05T01:43:09.187Z,-1.5
2023-04-05T01:45:09.045Z,-1.6
2023-04-05T01:47:07.050Z,-1.6
2023-04-05T01:49:09.219Z,-1.6
2023-04-05T01:51:05.763Z,-1.7
2023-04-05T01:53:12.232Z,-1.7
2023-04-05T01:55:09.411Z,-1.7
2023-04-05T01:57:08.649Z,-1.7
2023-04-05T02:01:09.219Z,-1.8
2023-04-05T02:03:05.903Z,-1.6
2023-04-05T02:05:08.391Z,-1.5
2023-04-05T02:07:09.695Z,-1.5
2023-04-05T02:09:12.261Z,-1.6
2023-04-05T02:11:07.084Z,-1.5
2023-04-05T02:13:08.998Z,-1.5
2023-04-05T02:17:07.136Z,-1.6
2023-04-05T02:19:08.372Z,-1.6
2023-04-05T02:23:07.156Z,-1.6
2023-04-05T02:27:12.650Z,-1.6
2023-04-05T02:29:08.365Z,-1.6
2023-04-05T02:31:07.594Z,-1.7
2023-04-05T02:33:08.671Z,-1.8
2023-04-05T02:35:05.800Z,-1.9
2023-04-05T02:37:06.286Z,-1.9
2023-04-05T02:39:09.053Z,-2
2023-04-05T02:41:05.814Z,-2
2023-04-05T02:43:06.258Z,-1.9
2023-04-05T02:45:05.814Z,-2
2023-04-05T02:47:09.006Z,-2
2023-04-05T02:49:06.277Z,-1.9
2023-04-05T02:51:05.865Z,-2
2023-04-05T02:53:09.027Z,-1.9
2023-04-05T02:57:06.415Z,-1.9
2023-04-05T02:59:09.069Z,-1.9
2023-04-05T03:01:12.142Z,-1.9
2023-04-05T03:03:06.663Z,-1.9
2023-04-05T03:05:05.882Z,-1.9
2023-04-05T03:07:08.978Z,-2
2023-04-05T03:09:05.843Z,-2
2023-04-05T03:11:09.275Z,-2
2023-04-05T03:15:09.027Z,-2.2
2023-04-05T03:17:05.842Z,-2.2
2023-04-05T03:23:05.896Z,-2.3
2023-04-05T03:25:09.180Z,-2.1
2023-04-05T03:27:06.337Z,-2.3
2023-04-05T03:29:09.103Z,-2.3
2023-04-05T03:31:06.334Z,-2.3
2023-04-05T03:33:06.324Z,-2.3
2023-04-05T03:39:09.045Z,-2.3
2023-04-05T03:43:09.018Z,-2.2
2023-04-05T03:45:05.792Z,-2.3
2023-04-05T03:47:10.732Z,-2.4
2023-04-05T03:49:09.008Z,-2.5
2023-04-05T03:51:05.811Z,-2.5
2023-04-05T03:53:08.601Z,-2.5
2023-04-05T03:59:10.285Z,-2.5
2023-04-05T04:01:08.374Z,-2.4
2023-04-05T04:03:05.858Z,-2.5
2023-04-05T04:05:05.870Z,-2.6
2023-04-05T04:07:12.250Z,-2.6
2023-04-05T04:11:05.844Z,-2.5
2023-04-05T04:13:06.434Z,-2.6
2023-04-05T04:15:12.342Z,-2.6
2023-04-05T04:17:05.952Z,-2.5
2023-04-05T04:19:06.255Z,-2.5
2023-04-05T04:21:05.893Z,-2.6
2023-04-05T04:23:08.704Z,-2.6
2023-04-05T04:27:05.855Z,-2.5
2023-04-05T04:29:07.255Z,-2.6
2023-04-05T04:31:06.263Z,-2.7
2023-04-05T04:33:09.461Z,-2.6
2023-04-05T04:35:09.010Z,-2.6
2023-04-05T04:37:06.259Z,-2.6
2023-04-05T04:39:06.185Z,-2.6
2023-04-05T04:41:08.821Z,-2.6
2023-04-05T04:43:07.068Z,-2.8
2023-04-05T04:45:06.287Z,-2.8
2023-04-05T04:47:05.843Z,-2.8
2023-04-05T04:49:06.333Z,-2.8
2023-04-05T04:51:07.175Z,-2.7
2023-04-05T04:53:07.114Z,-2.7
2023-04-05T04:55:12.236Z,-2.7
2023-04-05T04:57:08.537Z,-2.6
2023-04-05T04:59:05.853Z,-2.7
2023-04-05T05:01:09.170Z,-2.8
2023-04-05T05:05:06.315Z,-2.7
2023-04-05T05:07:06.330Z,-2.8
2023-04-05T05:09:05.880Z,-2.7
2023-04-05T05:11:22.602Z,-2.8
2023-04-05T05:13:12.456Z,-2.8
2023-04-05T05:15:08.678Z,-2.7
2023-04-05T05:17:08.663Z,-2.7
2023-04-05T05:19:06.781Z,-2.7
2023-04-05T05:21:18.751Z,-2.6
2023-04-05T05:23:07.124Z,-2.4
2023-04-05T05:25:09.670Z,-2.3
2023-04-05T05:27:05.843Z,-2.3
2023-04-05T05:29:09.166Z,-2.3
2023-04-05T05:31:09.091Z,-2.2
2023-04-05T05:33:05.892Z,-2.1
2023-04-05T05:35:10.793Z,-2.1
2023-04-05T05:37:07.110Z,-2
2023-04-05T05:39:08.418Z,-2
2023-04-05T05:41:09.021Z,-2
2023-04-05T05:43:06.704Z,-1.9
2023-04-05T05:45:05.834Z,-1.9
2023-04-05T05:47:09.054Z,-1.9
2023-04-05T05:51:05.828Z,-1.8
2023-04-05T05:53:05.839Z,-1.7
2023-04-05T05:55:09.141Z,-1.7
2023-04-05T05:57:05.820Z,-1.6
2023-04-05T05:59:08.638Z,-1.6
2023-04-05T06:01:09.066Z,-1.5
2023-04-05T06:03:09.216Z,-1.4
2023-04-05T06:05:05.914Z,-1.4
2023-04-05T06:07:07.676Z,-1.3
2023-04-05T06:09:12.275Z,-1.2
2023-04-05T06:11:11.840Z,-1.1
2023-04-05T06:13:06.282Z,-1
2023-04-05T06:15:05.814Z,-1
2023-04-05T06:17:08.652Z,-1
2023-04-05T06:21:10.743Z,-0.8
2023-04-05T06:23:08.639Z,-0.7
2023-04-05T06:25:09.142Z,-0.7
2023-04-05T06:27:08.665Z,-0.6
2023-04-05T06:29:06.627Z,-0.5
2023-04-05T06:31:10.340Z,0.5
2023-04-05T06:33:12.315Z,2.7
2023-04-05T06:35:09.116Z,2.6
2023-04-05T06:39:05.820Z,3.7
2023-04-05T06:41:09.033Z,3.8
2023-04-05T06:43:10.391Z,3.8
2023-04-05T06:45:09.120Z,4.1
2023-04-05T06:47:11.827Z,4.5
2023-04-05T06:49:11.679Z,4.1
2023-04-05T06:51:09.069Z,4.4
2023-04-05T06:53:08.910Z,4.8
2023-04-05T06:55:07.966Z,5.1
2023-04-05T06:59:05.870Z,5.1
2023-04-05T07:01:08.484Z,4.9
2023-04-05T07:03:05.912Z,5.1
2023-04-05T07:05:05.877Z,5.1
2023-04-05T07:07:09.080Z,4.7
2023-04-05T07:09:05.926Z,4.9
2023-04-05T07:11:08.539Z,4.7
2023-04-05T07:13:09.057Z,4.7
2023-04-05T07:15:05.855Z,4.6
2023-04-05T07:17:08.752Z,4.7
2023-04-05T07:19:06.716Z,4.8
2023-04-05T07:21:05.809Z,4.4
2023-04-05T07:23:05.841Z,4.6
2023-04-05T07:25:09.926Z,3.9
2023-04-05T07:27:09.133Z,4.3
2023-04-05T07:29:05.828Z,4.3
2023-04-05T07:31:06.363Z,4.3
2023-04-05T07:33:12.510Z,4.8
2023-04-05T07:35:07.124Z,4.9
2023-04-05T07:37:09.073Z,5.2
2023-04-05T07:39:08.466Z,5.1
2023-04-05T07:41:05.848Z,4
2023-04-05T07:43:06.363Z,4
2023-04-05T07:45:06.239Z,4
2023-04-05T07:47:06.540Z,3.6
2023-04-05T07:49:06.275Z,3.9
2023-04-05T07:53:05.826Z,3.9
2023-04-05T07:55:09.288Z,4
2023-04-05T07:57:05.836Z,3.9
2023-04-05T07:59:09.097Z,4.2
2023-04-05T08:01:06.396Z,3.8
2023-04-05T08:03:09.153Z,3.7
2023-04-05T08:05:09.069Z,3.6
2023-04-05T08:07:09.721Z,4.2
2023-04-05T08:09:07.145Z,4.2
2023-04-05T08:11:07.285Z,4.2
2023-04-05T08:13:08.934Z,4.4
2023-04-05T08:15:09.072Z,4.7
2023-04-05T08:17:09.406Z,4.8
2023-04-05T08:19:06.302Z,5.1
2023-04-05T08:21:10.330Z,4.7
2023-04-05T08:23:08.676Z,5.6
2023-04-05T08:25:06.318Z,5.2
2023-04-05T08:27:05.854Z,4.4
2023-04-05T08:29:09.048Z,5.7
2023-04-05T08:31:13.822Z,5.2
2023-04-05T08:33:07.173Z,5.5
2023-04-05T08:35:06.307Z,5.9
2023-04-05T08:37:06.416Z,6.1
2023-04-05T08:39:07.145Z,5.3
2023-04-05T08:41:06.285Z,5.6
2023-04-05T08:43:09.041Z,5.4
2023-04-05T08:45:05.851Z,5.7
2023-04-05T08:47:05.848Z,5.7
2023-04-05T08:49:09.077Z,5.9
2023-04-05T08:53:08.662Z,5.9
2023-04-05T08:55:07.145Z,5.9
2023-04-05T08:57:08.922Z,5.7
2023-04-05T08:59:05.864Z,5.6
2023-04-05T09:01:07.161Z,5.7
2023-04-05T09:03:06.284Z,5.8
2023-04-05T09:05:05.855Z,5.8
2023-04-05T09:07:06.331Z,5.7
2023-04-05T09:09:09.127Z,6.1
2023-04-05T09:11:09.144Z,6.3
2023-04-05T09:13:06.338Z,6.5
2023-04-05T09:15:06.580Z,6.9
2023-04-05T09:21:09.123Z,5.8
2023-04-05T09:23:05.852Z,6.1
2023-04-05T09:25:06.349Z,6.2
2023-04-05T09:27:05.952Z,6.7
2023-04-05T09:29:05.967Z,6.9
2023-04-05T09:31:09.366Z,6.1
2023-04-05T09:33:07.206Z,6.1
2023-04-05T09:35:08.903Z,6.3
2023-04-05T09:37:06.364Z,6.2
2023-04-05T09:39:05.886Z,6.4
2023-04-05T09:41:05.884Z,6.8
2023-04-05T09:43:09.165Z,6.6
2023-04-05T09:45:14.827Z,6.5
2023-04-05T09:47:09.064Z,6.2
2023-04-05T09:49:08.673Z,5.8
2023-04-05T09:51:12.437Z,5.7
2023-04-05T09:53:05.865Z,6.1
2023-04-05T09:57:05.888Z,6.5
2023-04-05T09:59:06.324Z,6.5
2023-04-05T10:01:16.616Z,6.4
2023-04-05T10:05:05.890Z,6.6
2023-04-05T10:07:06.441Z,6.3
2023-04-05T10:09:05.881Z,5.9
2023-04-05T10:11:06.238Z,6.1
2023-04-05T10:13:06.758Z,6.4
2023-04-05T10:15:07.154Z,6.8
2023-04-05T10:17:08.676Z,6.6
2023-04-05T10:19:06.310Z,6
2023-04-05T10:21:10.327Z,6.6
2023-04-05T10:23:06.309Z,7.2
2023-04-05T10:25:06.688Z,7.2
2023-04-05T10:27:06.262Z,7.1
2023-04-05T10:29:05.875Z,7.1
2023-04-05T10:31:06.831Z,7.1
2023-04-05T10:33:06.308Z,7.1
2023-04-05T10:35:06.345Z,7.2
2023-04-05T10:37:06.730Z,6.8
2023-04-05T10:39:05.922Z,7
2023-04-05T10:41:06.049Z,7.2
2023-04-05T10:43:07.178Z,7
2023-04-05T10:45:05.876Z,7
2023-04-05T10:47:05.874Z,7.1
2023-04-05T10:51:05.867Z,7.1
2023-04-05T10:53:05.878Z,7.2
2023-04-05T10:55:07.799Z,7.3
2023-04-05T10:57:08.482Z,7.2
2023-04-05T10:59:06.275Z,7.3
2023-04-05T11:01:06.870Z,7.3
2023-04-05T11:03:05.946Z,7.5
2023-04-05T11:05:05.909Z,7.4
2023-04-05T11:07:06.452Z,7.4
2023-04-05T11:09:05.963Z,7.5
2023-04-05T11:11:07.265Z,7.5
2023-04-05T11:15:06.194Z,7.8
2023-04-05T11:17:06.318Z,7.6
2023-04-05T11:19:06.809Z,7.8
2023-04-05T11:21:05.946Z,7.8
2023-04-05T11:23:05.905Z,7.8
2023-04-05T11:25:06.341Z,6.9
2023-04-05T11:27:06.725Z,7.2
2023-04-05T11:29:05.885Z,7.4
2023-04-05T11:33:05.932Z,7.7
2023-04-05T11:37:06.370Z,7.6
2023-04-05T11:39:05.895Z,7.9
2023-04-05T11:41:09.022Z,8.1
2023-04-05T11:43:06.405Z,8.2
2023-04-05T11:45:05.907Z,8.2
2023-04-05T11:47:06.058Z,8.3
2023-04-05T11:51:05.868Z,8.5
2023-04-05T11:53:05.866Z,8.4
2023-04-05T11:55:06.474Z,8.4
2023-04-05T11:57:06.437Z,8.5
2023-04-05T11:59:05.897Z,8.3
2023-04-05T12:01:06.360Z,8.1
2023-04-05T12:03:06.111Z,8.2
2023-04-05T12:05:05.934Z,8.1
2023-04-05T12:07:06.363Z,7.9
2023-04-05T12:11:05.908Z,7.8
2023-04-05T12:13:08.721Z,7.8
2023-04-05T12:15:05.994Z,7.9
2023-04-05T12:17:05.995Z,8
2023-04-05T12:19:06.321Z,7.5
2023-04-05T12:21:07.490Z,7.7
2023-04-05T12:23:05.867Z,7.8
2023-04-05T12:25:06.891Z,8.1
2023-04-05T12:27:05.894Z,7.8
2023-04-05T12:29:05.873Z,8.1
2023-04-05T12:31:06.484Z,8.3
2023-04-05T12:33:05.912Z,8.2
2023-04-05T12:35:06.378Z,8.2
2023-04-05T12:37:06.368Z,8.1
2023-04-05T12:39:05.872Z,8.2
2023-04-05T12:41:06.362Z,8.4
2023-04-05T12:43:06.838Z,8.4
2023-04-05T12:45:06.341Z,8.4
2023-04-05T12:47:05.937Z,8.3
2023-04-05T12:49:06.446Z,8.2
2023-04-05T12:51:11.002Z,8
2023-04-05T12:53:09.011Z,8
2023-04-05T12:55:06.747Z,7.6
2023-04-05T12:57:05.878Z,7.5
2023-04-05T12:59:05.954Z,7.7
2023-04-05T13:01:06.478Z,8.2
2023-04-05T13:03:06.087Z,8.3
2023-04-05T13:05:06.008Z,8.1
2023-04-05T13:11:05.902Z,8.5
2023-04-05T13:13:06.464Z,8.4
2023-04-05T13:15:06.382Z,8.2
2023-04-05T13:17:05.889Z,8.1
2023-04-05T13:19:06.481Z,8.3
2023-04-05T13:23:05.919Z,8.3
2023-04-05T13:25:06.606Z,8.3
2023-04-05T13:27:09.206Z,8.5
2023-04-05T13:29:05.893Z,8.5
2023-04-05T13:31:06.816Z,8.5
2023-04-05T13:33:05.948Z,8.5
2023-04-05T13:37:08.452Z,8.1
2023-04-05T13:39:05.888Z,7.9
2023-04-05T13:41:06.101Z,7.5
2023-04-05T13:43:10.026Z,7.5
2023-04-05T13:45:06.359Z,7.8
2023-04-05T13:47:06.310Z,7.9
2023-04-05T13:49:07.027Z,8
2023-04-05T13:51:05.915Z,8
2023-04-05T13:53:05.956Z,8.4
2023-04-05T13:57:05.892Z,8.6
2023-04-05T13:59:06.568Z,8.7
2023-04-05T14:01:06.399Z,8.6
2023-04-05T14:03:06.465Z,8.5
2023-04-05T14:05:05.928Z,8.5
2023-04-05T14:07:06.366Z,8.5
2023-04-05T14:11:06.660Z,8.3
2023-04-05T14:13:06.402Z,8.5
2023-04-05T14:15:05.920Z,8.3
2023-04-05T14:17:05.999Z,8.5
2023-04-05T14:19:06.469Z,8.2
2023-04-05T14:23:05.907Z,8
2023-04-05T14:25:06.889Z,7.9
2023-04-05T14:27:05.897Z,8.1
2023-04-05T14:31:06.421Z,8.5
2023-04-05T14:33:05.908Z,8.5
2023-04-05T14:35:09.074Z,8.5
2023-04-05T14:37:06.405Z,8.5
2023-04-05T14:39:05.960Z,8.4
2023-04-05T14:41:06.016Z,8.3
2023-04-05T14:43:11.229Z,8
2023-04-05T14:45:06.646Z,8.1
2023-04-05T14:47:06.292Z,8.1
2023-04-05T14:49:06.392Z,8.1
2023-04-05T14:51:05.913Z,8.2
2023-04-05T14:53:10.599Z,8.2
2023-04-05T14:55:06.796Z,8.1
2023-04-05T14:57:05.910Z,8.1
2023-04-05T14:59:06.045Z,8
2023-04-05T15:01:06.490Z,8
2023-04-05T15:03:06.012Z,8.1
2023-04-05T15:05:06.045Z,8.2
2023-04-05T15:07:06.498Z,8.1
2023-04-05T15:09:05.897Z,8.2
2023-04-05T15:11:05.907Z,8.3
2023-04-05T15:13:06.484Z,8.4
2023-04-05T15:15:06.001Z,8.3
2023-04-05T15:17:08.881Z,8.3
2023-04-05T15:19:06.777Z,8.1
2023-04-05T15:21:06.304Z,8.1
2023-04-05T15:25:06.377Z,8.3
2023-04-05T15:27:05.906Z,8.3
2023-04-05T15:29:06.015Z,8.3
2023-04-05T15:31:06.507Z,8.2
2023-04-05T15:33:11.277Z,8.3
2023-04-05T15:35:06.364Z,8.3
2023-04-05T15:37:06.384Z,8.1
2023-04-05T15:39:06.326Z,8.1
2023-04-05T15:41:05.906Z,8
2023-04-05T15:43:06.395Z,8
2023-04-05T15:45:06.011Z,8
2023-04-05T15:47:06.009Z,8.1
2023-04-05T15:49:06.451Z,8.2
2023-04-05T15:51:06.114Z,8.2
2023-04-05T15:53:06.017Z,8.2
2023-04-05T15:55:06.507Z,8.3
2023-04-05T15:57:06.388Z,8.3
2023-04-05T15:59:05.914Z,8.3
2023-04-05T16:01:06.501Z,8.3
2023-04-05T16:03:06.103Z,8.2
2023-04-05T16:05:05.904Z,8.3
2023-04-05T16:07:06.912Z,8.3
2023-04-05T16:11:05.980Z,8.1
2023-04-05T16:13:06.457Z,8
2023-04-05T16:17:05.976Z,8
2023-04-05T16:19:08.692Z,8
2023-04-05T16:23:05.919Z,8
2023-04-05T16:27:05.909Z,8
2023-04-05T16:29:06.414Z,8.1
2023-04-05T16:31:06.437Z,8
2023-04-05T16:33:06.064Z,8
2023-04-05T16:35:06.492Z,8
2023-04-05T16:37:06.838Z,8.1
2023-04-05T16:41:05.920Z,8.1
2023-04-05T16:43:06.374Z,8
2023-04-05T16:45:06.018Z,8
2023-04-05T16:47:05.985Z,7.9
2023-04-05T16:49:06.473Z,7.9
2023-04-05T16:51:07.898Z,7.8
2023-04-05T16:57:05.918Z,7.3
2023-04-05T16:59:08.008Z,7.3
2023-04-05T17:01:09.373Z,7.3
2023-04-05T17:03:06.260Z,7.4
2023-04-05T17:05:07.501Z,7.3
2023-04-05T17:07:07.464Z,7.4
2023-04-05T17:09:09.103Z,7.3
2023-04-05T17:11:06.274Z,7.3
2023-04-05T17:13:06.718Z,7.3
2023-04-05T17:15:06.215Z,7.1
2023-04-05T17:17:09.439Z,7
2023-04-05T17:19:06.717Z,7
2023-04-05T17:21:06.211Z,7
2023-04-05T17:23:09.089Z,6.7
2023-04-05T17:25:08.022Z,6.5
2023-04-05T17:27:06.674Z,6.5
2023-04-05T17:29:10.355Z,6.7
2023-04-05T17:31:09.346Z,6.6
2023-04-05T17:35:06.327Z,6.1
2023-04-05T17:37:07.266Z,6.1
2023-04-05T17:39:06.527Z,5.9
2023-04-05T17:41:06.700Z,6
2023-04-05T17:43:06.693Z,5.9
2023-04-05T17:45:06.583Z,6
2023-04-05T17:47:09.914Z,5.8
2023-04-05T17:49:07.492Z,5.8
2023-04-05T17:51:06.630Z,5.7
2023-04-05T17:53:09.028Z,5.5
2023-04-05T17:55:07.156Z,5.4
2023-04-05T17:57:06.222Z,5.3
2023-04-05T17:59:06.422Z,5.2
2023-04-05T18:01:09.522Z,5.3
2023-04-05T18:03:08.386Z,5.3
2023-04-05T18:05:06.215Z,5.1
2023-04-05T18:07:07.518Z,5.1
2023-04-05T18:09:06.765Z,4.8
2023-04-05T18:11:07.597Z,4.9
2023-04-05T18:13:07.136Z,4.9
2023-04-05T18:15:06.701Z,4.9
2023-04-05T18:17:09.029Z,4.8
2023-04-05T18:19:09.030Z,4.6
2023-04-05T18:21:06.390Z,4.6
2023-04-05T18:23:09.125Z,4.6
2023-04-05T18:25:09.518Z,4.4
2023-04-05T18:27:06.731Z,4.4
2023-04-05T18:29:09.126Z,4.3
2023-04-05T18:31:07.172Z,4.3
2023-04-05T18:33:06.243Z,4.3
2023-04-05T18:35:07.573Z,4.3
2023-04-05T18:37:07.510Z,4.4
2023-04-05T18:39:09.309Z,4
2023-04-05T18:41:12.188Z,4.1
2023-04-05T18:43:08.772Z,4
2023-04-05T18:45:07.690Z,4.2
2023-04-05T18:47:06.238Z,4
2023-04-05T18:49:09.262Z,4
2023-04-05T18:51:10.066Z,3.8
2023-04-05T18:55:08.270Z,3.8
2023-04-05T18:57:09.455Z,3.9
2023-04-05T18:59:09.314Z,3.8
2023-04-05T19:01:10.195Z,3.8
2023-04-05T19:03:09.553Z,3.8
2023-04-05T19:05:06.235Z,3.7
2023-04-05T19:07:09.926Z,3.7
2023-04-05T19:09:09.459Z,3.6
2023-04-05T19:11:10.290Z,3.6
2023-04-05T19:13:11.717Z,3.4
2023-04-05T19:17:09.481Z,3.2
2023-04-05T19:19:09.257Z,3.3
2023-04-05T19:21:06.264Z,3.1
2023-04-05T19:23:09.061Z,3
2023-04-05T19:25:07.189Z,2.9
2023-04-05T19:27:08.072Z,2.8
2023-04-05T19:29:07.155Z,2.8
2023-04-05T19:31:09.551Z,2.9
2023-04-05T19:33:09.845Z,2.8
2023-04-05T19:35:06.284Z,2.9
2023-04-05T19:37:09.518Z,2.9
2023-04-05T19:39:06.487Z,3
2023-04-05T19:43:06.767Z,2.8
2023-04-05T19:45:12.887Z,2.8
2023-04-05T19:47:13.026Z,2.8
2023-04-05T19:49:08.181Z,2.9
2023-04-05T19:51:06.631Z,2.8
2023-04-05T19:57:08.859Z,2.6
2023-04-05T19:59:06.952Z,2.6
2023-04-05T20:01:12.598Z,2.4
2023-04-05T20:03:07.731Z,2.4
2023-04-05T20:05:06.354Z,2.6
2023-04-05T20:07:09.491Z,2.5
2023-04-05T20:11:06.383Z,2.5
2023-04-05T20:15:06.529Z,2.5
2023-04-05T20:17:06.262Z,2.3
2023-04-05T20:19:08.129Z,2.3
2023-04-05T20:21:06.378Z,2.4
2023-04-05T20:23:06.351Z,2.5
2023-04-05T20:25:06.775Z,2.5
2023-04-05T20:27:06.406Z,2.4
2023-04-05T20:29:06.533Z,2.3
2023-04-05T20:31:11.546Z,2.2
2023-04-05T20:33:12.285Z,2.5
2023-04-05T20:35:06.643Z,2.4
2023-04-05T20:37:06.702Z,2.3
2023-04-05T20:39:07.061Z,2.2
2023-04-05T20:41:09.880Z,2.3
2023-04-05T20:43:06.712Z,2.3
2023-04-05T20:45:10.759Z,2.2
2023-04-05T20:47:06.271Z,2.1
2023-04-05T20:49:10.333Z,2.1
2023-04-05T20:51:09.059Z,2
2023-04-05T20:53:06.974Z,2.1
2023-04-05T20:55:08.071Z,2.1
2023-04-05T20:59:06.915Z,1.7
2023-04-05T21:01:06.840Z,1.7
2023-04-05T21:03:10.147Z,1.7
2023-04-05T21:05:06.668Z,1.7
2023-04-05T21:07:06.732Z,1.7
2023-04-05T21:09:10.034Z,1.8
2023-04-05T21:11:09.333Z,2
2023-04-05T21:13:08.108Z,2
2023-04-05T21:15:12.533Z,1.9
2023-04-05T21:17:07.565Z,1.9
2023-04-05T21:19:09.570Z,1.9
2023-04-05T21:21:06.420Z,2.1
2023-04-05T21:23:09.748Z,2.2
2023-04-05T21:25:08.805Z,2.1
2023-04-05T21:27:18.643Z,2.1
2023-04-05T21:29:08.100Z,2.1
2023-04-05T21:31:09.503Z,2.1
2023-04-05T21:35:07.077Z,2.1
2023-04-05T21:37:09.110Z,2
2023-04-05T21:41:09.177Z,1.9
2023-04-05T21:43:09.088Z,1.8
2023-04-05T21:47:09.137Z,1.6
2023-04-05T21:49:07.043Z,1.6
2023-04-05T21:51:07.969Z,1.5
2023-04-05T21:53:12.775Z,1.4
2023-04-05T21:55:09.367Z,1.5
2023-04-05T21:57:09.088Z,1.6
2023-04-05T21:59:06.516Z,1.5
2023-04-05T22:01:09.764Z,1.4
2023-04-05T22:03:06.303Z,1.5
2023-04-05T22:05:09.816Z,1.3
2023-04-05T22:07:13.220Z,1.3
2023-04-05T22:09:09.695Z,1.4
2023-04-05T22:11:06.250Z,1.5
2023-04-05T22:13:09.977Z,1.3
2023-04-05T22:17:09.624Z,1.3
2023-04-05T22:19:07.732Z,1.3
2023-04-05T22:21:06.275Z,1.3
2023-04-05T22:23:09.902Z,1.2
2023-04-05T22:25:09.454Z,1.3
2023-04-05T22:29:07.894Z,1.3
2023-04-05T22:31:06.878Z,1.2
2023-04-05T22:33:13.048Z,1.1
2023-04-05T22:35:12.366Z,1.1
2023-04-05T22:37:09.073Z,1.1
2023-04-05T22:39:09.734Z,1.3
2023-04-05T22:41:09.738Z,1.2
2023-04-05T22:43:12.210Z,1.1
2023-04-05T22:45:06.248Z,1.1
2023-04-05T22:47:09.462Z,1.1
2023-04-05T22:49:09.711Z,1.1
2023-04-05T22:51:09.655Z,1
2023-04-05T22:53:07.551Z,1
2023-04-05T22:55:06.837Z,1
2023-04-05T22:57:06.283Z,0.9
2023-04-05T22:59:09.192Z,0.9
2023-04-05T23:01:08.052Z,1
2023-04-05T23:03:07.556Z,0.9
2023-04-05T23:05:07.536Z,0.9
2023-04-05T23:07:09.652Z,1
2023-04-05T23:09:06.580Z,1.2
2023-04-05T23:13:06.709Z,0.9
2023-04-05T23:15:06.305Z,0.7
2023-04-05T23:17:07.611Z,0.5
2023-04-05T23:19:07.831Z,0.3
2023-04-05T23:21:12.869Z,0.3
2023-04-05T23:23:09.509Z,0.2
2023-04-05T23:25:13.231Z,0.2
2023-04-05T23:27:07.580Z,0.2
2023-04-05T23:29:09.633Z,0.1
2023-04-05T23:31:07.167Z,0.2
2023-04-05T23:33:12.877Z,0.1
2023-04-05T23:35:09.535Z,0.4
2023-04-05T23:37:07.497Z,0.7
2023-04-05T23:43:07.544Z,0.5
2023-04-05T23:45:10.626Z,0.4
2023-04-05T23:47:06.300Z,0.4
2023-04-05T23:49:09.177Z,0.6
2023-04-05T23:53:06.289Z,0.4
2023-04-05T23:55:06.772Z,0.4
2023-04-05T23:57:06.337Z,0.5
2023-04-05T23:59:06.414Z,0.2
